sensor_id;sensor_type;location;lat;lon;timestamp;pressure;altitude;pressure_sealevel;temperature;humidity
74346;BME280;62776;50.518;6.732;2023-03-03T00:03:55;96949.31;;;-0.07;100.00
74346;BME280;62776;50.518;6.732;2023-03-03T00:06:44;96955.97;;;-0.10;100.00
74346;BME280;62776;50.518;6.732;2023-03-03T00:09:36;96949.97;;;-0.12;100.00
74346;BME280;62776;50.518;6.732;2023-03-03T00:12:28;96945.53;;;-0.16;100.00
74346;BME280;62776;50.518;6.732;2023-03-03T00:15:22;96945.22;;;-0.25;100.00
74346;BME280;62776;50.518;6.732;2023-03-03T00:24:20;96943.00;;;-0.38;100.00
74346;BME280;62776;50.518;6.732;2023-03-03T00:27:28;96953.91;;;-0.42;100.00
74346;BME280;62776;50.518;6.732;2023-03-03T00:30:26;96957.28;;;-0.43;100.00
74346;BME280;62776;50.518;6.732;2023-03-03T00:39:28;96960.41;;;-0.50;100.00
74346;BME280;62776;50.518;6.732;2023-03-03T00:42:16;96968.59;;;-0.37;100.00
74346;BME280;62776;50.518;6.732;2023-03-03T00:48:20;96979.09;;;-0.51;100.00
74346;BME280;62776;50.518;6.732;2023-03-03T00:54:05;96986.19;;;-0.44;100.00
74346;BME280;62776;50.518;6.732;2023-03-03T00:56:51;96992.16;;;-0.44;100.00
74346;BME280;62776;50.518;6.732;2023-03-03T00:59:37;96983.53;;;-0.47;100.00
74346;BME280;62776;50.518;6.732;2023-03-03T01:02:25;96996.97;;;-0.51;100.00
74346;BME280;62776;50.518;6.732;2023-03-03T01:05:15;96994.16;;;-0.57;100.00
74346;BME280;62776;50.518;6.732;2023-03-03T01:08:02;96987.47;;;-0.55;100.00
74346;BME280;62776;50.518;6.732;2023-03-03T01:10:51;96983.91;;;-0.59;100.00
74346;BME280;62776;50.518;6.732;2023-03-03T01:13:40;96975.38;;;-0.60;100.00
74346;BME280;62776;50.518;6.732;2023-03-03T01:16:33;96978.03;;;-0.56;100.00
74346;BME280;62776;50.518;6.732;2023-03-03T01:19:19;96976.28;;;-0.57;100.00
74346;BME280;62776;50.518;6.732;2023-03-03T01:22:07;96966.91;;;-0.58;100.00
74346;BME280;62776;50.518;6.732;2023-03-03T01:24:54;96962.56;;;-0.61;100.00
74346;BME280;62776;50.518;6.732;2023-03-03T01:27:40;96960.88;;;-0.61;100.00
74346;BME280;62776;50.518;6.732;2023-03-03T01:30:27;96965.91;;;-0.62;100.00
74346;BME280;62776;50.518;6.732;2023-03-03T01:33:13;96963.38;;;-0.62;100.00
74346;BME280;62776;50.518;6.732;2023-03-03T01:36:02;96959.94;;;-0.63;100.00
74346;BME280;62776;50.518;6.732;2023-03-03T01:38:51;96965.03;;;-0.63;100.00
74346;BME280;62776;50.518;6.732;2023-03-03T01:41:38;96966.00;;;-0.61;100.00
74346;BME280;62776;50.518;6.732;2023-03-03T01:44:27;96970.25;;;-0.60;100.00
74346;BME280;62776;50.518;6.732;2023-03-03T01:47:19;96970.25;;;-0.60;100.00
74346;BME280;62776;50.518;6.732;2023-03-03T01:50:13;96964.53;;;-0.54;100.00
74346;BME280;62776;50.518;6.732;2023-03-03T01:53:04;96960.78;;;-0.41;100.00
74346;BME280;62776;50.518;6.732;2023-03-03T01:55:53;96956.94;;;-0.30;100.00
74346;BME280;62776;50.518;6.732;2023-03-03T01:58:46;96952.16;;;-0.21;100.00
74346;BME280;62776;50.518;6.732;2023-03-03T02:01:34;96941.53;;;-0.10;100.00
74346;BME280;62776;50.518;6.732;2023-03-03T02:04:26;96946.75;;;-0.07;100.00
74346;BME280;62776;50.518;6.732;2023-03-03T02:07:17;96953.66;;;-0.04;100.00
74346;BME280;62776;50.518;6.732;2023-03-03T02:10:14;96951.06;;;-0.06;100.00
74346;BME280;62776;50.518;6.732;2023-03-03T02:13:03;96954.00;;;0.05;100.00
74346;BME280;62776;50.518;6.732;2023-03-03T02:15:49;96959.31;;;0.11;100.00
74346;BME280;62776;50.518;6.732;2023-03-03T02:18:42;96963.72;;;0.15;100.00
74346;BME280;62776;50.518;6.732;2023-03-03T02:21:29;96966.97;;;0.11;100.00
74346;BME280;62776;50.518;6.732;2023-03-03T02:27:36;96956.50;;;0.04;100.00
74346;BME280;62776;50.518;6.732;2023-03-03T02:30:23;96960.63;;;0.00;100.00
74346;BME280;62776;50.518;6.732;2023-03-03T02:33:16;96952.13;;;0.01;100.00
74346;BME280;62776;50.518;6.732;2023-03-03T02:36:02;96953.13;;;0.05;100.00
74346;BME280;62776;50.518;6.732;2023-03-03T02:42:24;96949.25;;;-0.08;100.00
74346;BME280;62776;50.518;6.732;2023-03-03T02:45:12;96946.72;;;0.16;100.00
74346;BME280;62776;50.518;6.732;2023-03-03T02:48:00;96953.66;;;0.20;100.00
74346;BME280;62776;50.518;6.732;2023-03-03T02:50:46;96956.97;;;0.17;100.00
74346;BME280;62776;50.518;6.732;2023-03-03T02:53:28;96956.41;;;0.24;100.00
74346;BME280;62776;50.518;6.732;2023-03-03T02:56:14;96961.63;;;0.27;100.00
74346;BME280;62776;50.518;6.732;2023-03-03T02:59:01;96966.63;;;0.24;100.00
74346;BME280;62776;50.518;6.732;2023-03-03T03:01:48;96964.88;;;0.23;100.00
74346;BME280;62776;50.518;6.732;2023-03-03T03:04:37;96968.19;;;0.21;100.00
74346;BME280;62776;50.518;6.732;2023-03-03T03:07:24;96971.63;;;0.21;100.00
74346;BME280;62776;50.518;6.732;2023-03-03T03:10:11;96980.94;;;0.19;100.00
74346;BME280;62776;50.518;6.732;2023-03-03T03:12:59;96974.88;;;0.17;100.00
74346;BME280;62776;50.518;6.732;2023-03-03T03:15:46;96970.78;;;0.22;100.00
74346;BME280;62776;50.518;6.732;2023-03-03T03:18:35;96980.31;;;0.26;100.00
74346;BME280;62776;50.518;6.732;2023-03-03T03:21:28;96970.09;;;0.26;100.00
74346;BME280;62776;50.518;6.732;2023-03-03T03:24:17;96976.75;;;0.21;100.00
74346;BME280;62776;50.518;6.732;2023-03-03T03:27:05;96974.75;;;0.14;100.00
74346;BME280;62776;50.518;6.732;2023-03-03T03:29:53;96981.78;;;0.20;100.00
74346;BME280;62776;50.518;6.732;2023-03-03T03:32:40;96988.38;;;0.13;100.00
74346;BME280;62776;50.518;6.732;2023-03-03T03:35:34;96981.25;;;0.05;100.00
74346;BME280;62776;50.518;6.732;2023-03-03T03:38:22;96985.34;;;0.01;100.00
74346;BME280;62776;50.518;6.732;2023-03-03T03:41:14;96986.19;;;0.00;100.00
74346;BME280;62776;50.518;6.732;2023-03-03T03:44:00;96982.91;;;0.04;100.00
74346;BME280;62776;50.518;6.732;2023-03-03T03:46:47;96989.78;;;0.05;100.00
74346;BME280;62776;50.518;6.732;2023-03-03T03:49:34;96988.13;;;0.07;100.00
74346;BME280;62776;50.518;6.732;2023-03-03T03:52:22;96984.78;;;0.08;100.00
74346;BME280;62776;50.518;6.732;2023-03-03T03:55:03;96991.38;;;0.03;100.00
74346;BME280;62776;50.518;6.732;2023-03-03T03:58:04;96992.78;;;-0.05;100.00
74346;BME280;62776;50.518;6.732;2023-03-03T04:00:50;96995.06;;;-0.13;100.00
74346;BME280;62776;50.518;6.732;2023-03-03T04:03:36;96986.34;;;-0.18;100.00
74346;BME280;62776;50.518;6.732;2023-03-03T04:06:24;96991.47;;;-0.18;100.00
74346;BME280;62776;50.518;6.732;2023-03-03T04:09:10;96992.72;;;-0.30;100.00
74346;BME280;62776;50.518;6.732;2023-03-03T04:11:58;96989.47;;;-0.25;100.00
74346;BME280;62776;50.518;6.732;2023-03-03T04:14:56;96991.75;;;-0.32;100.00
74346;BME280;62776;50.518;6.732;2023-03-03T04:17:43;96984.91;;;-0.33;100.00
74346;BME280;62776;50.518;6.732;2023-03-03T04:20:30;96984.16;;;-0.31;100.00
74346;BME280;62776;50.518;6.732;2023-03-03T04:23:16;96989.44;;;-0.26;100.00
74346;BME280;62776;50.518;6.732;2023-03-03T04:26:03;96988.56;;;-0.27;100.00
74346;BME280;62776;50.518;6.732;2023-03-03T04:28:51;96990.03;;;-0.33;100.00
74346;BME280;62776;50.518;6.732;2023-03-03T04:31:38;96997.69;;;-0.33;100.00
74346;BME280;62776;50.518;6.732;2023-03-03T04:34:25;96995.94;;;-0.34;100.00
74346;BME280;62776;50.518;6.732;2023-03-03T04:37:12;96994.78;;;-0.42;100.00
74346;BME280;62776;50.518;6.732;2023-03-03T04:39:59;97004.63;;;-0.51;100.00
74346;BME280;62776;50.518;6.732;2023-03-03T04:42:45;97013.53;;;-0.63;100.00
74346;BME280;62776;50.518;6.732;2023-03-03T04:45:32;97007.38;;;-0.68;100.00
74346;BME280;62776;50.518;6.732;2023-03-03T04:48:20;97012.38;;;-0.71;100.00
74346;BME280;62776;50.518;6.732;2023-03-03T04:51:00;97012.56;;;-0.66;100.00
74346;BME280;62776;50.518;6.732;2023-03-03T04:53:47;97014.25;;;-0.67;100.00
74346;BME280;62776;50.518;6.732;2023-03-03T04:56:34;97010.06;;;-0.65;100.00
74346;BME280;62776;50.518;6.732;2023-03-03T04:59:21;97005.72;;;-0.67;100.00
74346;BME280;62776;50.518;6.732;2023-03-03T05:02:08;97008.38;;;-0.64;100.00
74346;BME280;62776;50.518;6.732;2023-03-03T05:04:56;97012.44;;;-0.69;100.00
74346;BME280;62776;50.518;6.732;2023-03-03T05:07:42;97015.75;;;-0.72;100.00
74346;BME280;62776;50.518;6.732;2023-03-03T05:10:30;97014.13;;;-0.70;100.00
74346;BME280;62776;50.518;6.732;2023-03-03T05:13:17;97007.25;;;-0.71;100.00
74346;BME280;62776;50.518;6.732;2023-03-03T05:16:04;97003.16;;;-0.67;100.00
74346;BME280;62776;50.518;6.732;2023-03-03T05:18:50;97013.25;;;-0.70;100.00
74346;BME280;62776;50.518;6.732;2023-03-03T05:21:37;97020.78;;;-0.73;100.00
74346;BME280;62776;50.518;6.732;2023-03-03T05:24:29;97012.88;;;-0.79;100.00
74346;BME280;62776;50.518;6.732;2023-03-03T05:27:23;97006.09;;;-0.79;100.00
74346;BME280;62776;50.518;6.732;2023-03-03T05:30:13;97022.22;;;-0.80;100.00
74346;BME280;62776;50.518;6.732;2023-03-03T05:33:00;97020.66;;;-0.76;100.00
74346;BME280;62776;50.518;6.732;2023-03-03T05:35:54;97016.28;;;-0.79;100.00
74346;BME280;62776;50.518;6.732;2023-03-03T05:38:53;97032.31;;;-0.83;100.00
74346;BME280;62776;50.518;6.732;2023-03-03T05:41:43;97040.63;;;-0.87;100.00
74346;BME280;62776;50.518;6.732;2023-03-03T05:44:31;97042.38;;;-0.86;100.00
74346;BME280;62776;50.518;6.732;2023-03-03T05:47:17;97027.69;;;-0.91;100.00
74346;BME280;62776;50.518;6.732;2023-03-03T05:50:04;97008.78;;;-0.96;100.00
74346;BME280;62776;50.518;6.732;2023-03-03T05:52:52;97024.81;;;-0.99;100.00
74346;BME280;62776;50.518;6.732;2023-03-03T05:55:45;97035.13;;;-0.96;100.00
74346;BME280;62776;50.518;6.732;2023-03-03T05:58:31;97034.91;;;-1.02;100.00
74346;BME280;62776;50.518;6.732;2023-03-03T06:01:17;97041.88;;;-0.98;100.00
74346;BME280;62776;50.518;6.732;2023-03-03T06:04:04;97041.00;;;-0.98;100.00
74346;BME280;62776;50.518;6.732;2023-03-03T06:06:51;97046.97;;;-0.98;100.00
74346;BME280;62776;50.518;6.732;2023-03-03T06:09:19;97040.81;;;-1.03;100.00
74346;BME280;62776;50.518;6.732;2023-03-03T06:12:19;97041.56;;;-1.05;100.00
74346;BME280;62776;50.518;6.732;2023-03-03T06:15:06;97051.75;;;-1.05;100.00
74346;BME280;62776;50.518;6.732;2023-03-03T06:17:53;97055.50;;;-0.97;100.00
74346;BME280;62776;50.518;6.732;2023-03-03T06:20:39;97055.19;;;-1.05;100.00
74346;BME280;62776;50.518;6.732;2023-03-03T06:23:31;97055.06;;;-1.08;100.00
74346;BME280;62776;50.518;6.732;2023-03-03T06:26:17;97058.66;;;-1.03;100.00
74346;BME280;62776;50.518;6.732;2023-03-03T06:29:05;97066.44;;;-1.00;100.00
74346;BME280;62776;50.518;6.732;2023-03-03T06:31:51;97067.25;;;-1.01;100.00
74346;BME280;62776;50.518;6.732;2023-03-03T06:34:51;97066.94;;;-1.08;100.00
74346;BME280;62776;50.518;6.732;2023-03-03T06:37:39;97058.78;;;-1.00;100.00
74346;BME280;62776;50.518;6.732;2023-03-03T06:40:33;97064.66;;;-1.02;100.00
74346;BME280;62776;50.518;6.732;2023-03-03T06:43:21;97059.69;;;-0.99;100.00
74346;BME280;62776;50.518;6.732;2023-03-03T06:46:07;97064.97;;;-0.95;100.00
74346;BME280;62776;50.518;6.732;2023-03-03T06:48:53;97072.59;;;-0.95;100.00
74346;BME280;62776;50.518;6.732;2023-03-03T06:51:46;97070.78;;;-1.37;100.00
74346;BME280;62776;50.518;6.732;2023-03-03T06:54:32;97073.34;;;-0.97;100.00
74346;BME280;62776;50.518;6.732;2023-03-03T06:57:27;97079.34;;;-0.97;100.00
74346;BME280;62776;50.518;6.732;2023-03-03T07:00:24;97071.56;;;-1.00;100.00
74346;BME280;62776;50.518;6.732;2023-03-03T07:03:18;97082.75;;;-0.96;100.00
74346;BME280;62776;50.518;6.732;2023-03-03T07:06:23;97084.44;;;-0.97;100.00
74346;BME280;62776;50.518;6.732;2023-03-03T07:09:21;97094.78;;;-0.94;100.00
74346;BME280;62776;50.518;6.732;2023-03-03T07:12:23;97091.66;;;-0.87;100.00
74346;BME280;62776;50.518;6.732;2023-03-03T07:15:24;97092.06;;;-0.78;100.00
74346;BME280;62776;50.518;6.732;2023-03-03T07:18:38;97098.66;;;-0.83;100.00
74346;BME280;62776;50.518;6.732;2023-03-03T07:21:37;97104.81;;;-0.78;100.00
74346;BME280;62776;50.518;6.732;2023-03-03T07:24:29;97105.16;;;-0.69;100.00
74346;BME280;62776;50.518;6.732;2023-03-03T07:27:27;97107.22;;;-0.81;100.00
74346;BME280;62776;50.518;6.732;2023-03-03T07:30:25;97106.75;;;-0.72;100.00
74346;BME280;62776;50.518;6.732;2023-03-03T07:33:26;97111.59;;;-0.78;100.00
74346;BME280;62776;50.518;6.732;2023-03-03T07:36:33;97117.31;;;-0.84;100.00
74346;BME280;62776;50.518;6.732;2023-03-03T07:39:34;97123.34;;;-0.82;100.00
74346;BME280;62776;50.518;6.732;2023-03-03T07:42:41;97118.50;;;-0.76;100.00
74346;BME280;62776;50.518;6.732;2023-03-03T07:45:36;97130.84;;;-0.85;100.00
74346;BME280;62776;50.518;6.732;2023-03-03T07:48:30;97144.81;;;-0.77;100.00
74346;BME280;62776;50.518;6.732;2023-03-03T07:54:27;97140.28;;;-0.63;100.00
74346;BME280;62776;50.518;6.732;2023-03-03T07:57:26;97147.09;;;-0.64;100.00
74346;BME280;62776;50.518;6.732;2023-03-03T08:03:02;97151.16;;;-0.48;100.00
74346;BME280;62776;50.518;6.732;2023-03-03T08:05:57;97149.59;;;-0.44;100.00
74346;BME280;62776;50.518;6.732;2023-03-03T08:08:44;97144.63;;;-0.41;100.00
74346;BME280;62776;50.518;6.732;2023-03-03T08:11:33;97144.84;;;-0.35;100.00
74346;BME280;62776;50.518;6.732;2023-03-03T08:14:40;97164.41;;;-0.56;100.00
74346;BME280;62776;50.518;6.732;2023-03-03T08:17:34;97161.66;;;-0.40;100.00
74346;BME280;62776;50.518;6.732;2023-03-03T08:20:41;97156.00;;;-0.54;100.00
74346;BME280;62776;50.518;6.732;2023-03-03T08:23:30;97151.72;;;-0.34;100.00
74346;BME280;62776;50.518;6.732;2023-03-03T08:26:21;97158.72;;;-0.30;100.00
74346;BME280;62776;50.518;6.732;2023-03-03T08:29:07;97165.63;;;-0.28;100.00
74346;BME280;62776;50.518;6.732;2023-03-03T08:32:00;97170.25;;;-0.38;100.00
74346;BME280;62776;50.518;6.732;2023-03-03T08:34:47;97167.66;;;-0.40;100.00
74346;BME280;62776;50.518;6.732;2023-03-03T08:37:33;97169.41;;;-0.39;100.00
74346;BME280;62776;50.518;6.732;2023-03-03T08:40:19;97170.88;;;-0.44;100.00
74346;BME280;62776;50.518;6.732;2023-03-03T08:43:16;97169.28;;;-0.42;100.00
74346;BME280;62776;50.518;6.732;2023-03-03T08:46:07;97170.25;;;-0.38;100.00
74346;BME280;62776;50.518;6.732;2023-03-03T08:48:56;97167.53;;;-0.43;100.00
74346;BME280;62776;50.518;6.732;2023-03-03T08:51:42;97174.66;;;-0.36;100.00
74346;BME280;62776;50.518;6.732;2023-03-03T08:54:28;97171.81;;;-0.21;100.00
74346;BME280;62776;50.518;6.732;2023-03-03T08:57:16;97175.50;;;-0.15;100.00
74346;BME280;62776;50.518;6.732;2023-03-03T09:00:03;97178.06;;;-0.15;100.00
74346;BME280;62776;50.518;6.732;2023-03-03T09:02:55;97190.97;;;-0.12;100.00
74346;BME280;62776;50.518;6.732;2023-03-03T09:05:42;97188.41;;;-0.12;100.00
74346;BME280;62776;50.518;6.732;2023-03-03T09:08:30;97202.88;;;-0.12;100.00
74346;BME280;62776;50.518;6.732;2023-03-03T09:11:25;97191.47;;;-0.20;100.00
74346;BME280;62776;50.518;6.732;2023-03-03T09:14:15;97196.38;;;-0.04;100.00
74346;BME280;62776;50.518;6.732;2023-03-03T09:17:23;97201.38;;;-0.07;100.00
74346;BME280;62776;50.518;6.732;2023-03-03T09:20:27;97206.16;;;0.06;100.00
74346;BME280;62776;50.518;6.732;2023-03-03T09:23:36;97203.25;;;-0.03;100.00
74346;BME280;62776;50.518;6.732;2023-03-03T09:26:46;97210.09;;;-0.02;100.00
74346;BME280;62776;50.518;6.732;2023-03-03T09:29:38;97213.31;;;0.15;100.00
74346;BME280;62776;50.518;6.732;2023-03-03T09:35:35;97217.88;;;0.01;100.00
74346;BME280;62776;50.518;6.732;2023-03-03T09:38:31;97220.38;;;-0.01;100.00
74346;BME280;62776;50.518;6.732;2023-03-03T09:41:37;97223.56;;;-0.06;100.00
74346;BME280;62776;50.518;6.732;2023-03-03T09:54:27;97226.91;;;-0.07;100.00
74346;BME280;62776;50.518;6.732;2023-03-03T09:57:22;97225.94;;;0.10;100.00
74346;BME280;62776;50.518;6.732;2023-03-03T10:10:02;97229.34;;;0.11;100.00
74346;BME280;62776;50.518;6.732;2023-03-03T10:19:50;97232.09;;;0.15;100.00
74346;BME280;62776;50.518;6.732;2023-03-03T10:22:54;97238.19;;;0.19;100.00
74346;BME280;62776;50.518;6.732;2023-03-03T10:25:49;97231.00;;;-0.11;100.00
74346;BME280;62776;50.518;6.732;2023-03-03T10:32:04;97225.84;;;0.29;100.00
74346;BME280;62776;50.518;6.732;2023-03-03T10:38:50;97231.09;;;0.32;100.00
74346;BME280;62776;50.518;6.732;2023-03-03T10:44:37;97240.75;;;0.62;100.00
74346;BME280;62776;50.518;6.732;2023-03-03T10:47:58;97236.03;;;0.50;100.00
74346;BME280;62776;50.518;6.732;2023-03-03T10:51:39;97245.50;;;0.52;100.00
74346;BME280;62776;50.518;6.732;2023-03-03T10:54:32;97259.47;;;0.60;100.00
74346;BME280;62776;50.518;6.732;2023-03-03T10:57:33;97261.81;;;0.54;100.00
74346;BME280;62776;50.518;6.732;2023-03-03T11:09:43;97274.72;;;0.57;100.00
74346;BME280;62776;50.518;6.732;2023-03-03T11:22:44;97273.97;;;0.39;100.00
74346;BME280;62776;50.518;6.732;2023-03-03T11:25:52;97270.84;;;0.46;100.00
74346;BME280;62776;50.518;6.732;2023-03-03T11:29:03;97260.63;;;0.46;100.00
74346;BME280;62776;50.518;6.732;2023-03-03T11:35:25;97262.66;;;0.55;100.00
74346;BME280;62776;50.518;6.732;2023-03-03T11:39:17;97257.38;;;0.50;100.00
74346;BME280;62776;50.518;6.732;2023-03-03T11:42:01;97264.25;;;0.51;100.00
74346;BME280;62776;50.518;6.732;2023-03-03T11:45:18;97253.66;;;0.65;100.00
74346;BME280;62776;50.518;6.732;2023-03-03T11:51:52;97245.53;;;0.75;100.00
74346;BME280;62776;50.518;6.732;2023-03-03T11:54:53;97246.91;;;0.89;100.00
74346;BME280;62776;50.518;6.732;2023-03-03T11:58:16;97251.34;;;0.71;100.00
74346;BME280;62776;50.518;6.732;2023-03-03T12:01:38;97237.63;;;0.69;100.00
74346;BME280;62776;50.518;6.732;2023-03-03T12:04:36;97239.00;;;0.83;100.00
74346;BME280;62776;50.518;6.732;2023-03-03T12:23:51;97237.78;;;0.51;100.00
74346;BME280;62776;50.518;6.732;2023-03-03T12:30:13;97227.09;;;0.83;100.00
74346;BME280;62776;50.518;6.732;2023-03-03T12:40:16;97215.66;;;0.96;100.00
74346;BME280;62776;50.518;6.732;2023-03-03T12:46:43;97210.91;;;1.06;100.00
74346;BME280;62776;50.518;6.732;2023-03-03T12:56:17;97208.16;;;1.02;100.00
74346;BME280;62776;50.518;6.732;2023-03-03T13:05:56;97191.19;;;1.04;100.00
74346;BME280;62776;50.518;6.732;2023-03-03T13:16:13;97194.72;;;1.07;100.00
74346;BME280;62776;50.518;6.732;2023-03-03T13:19:15;97201.97;;;1.19;100.00
74346;BME280;62776;50.518;6.732;2023-03-03T13:22:31;97198.03;;;1.05;100.00
74346;BME280;62776;50.518;6.732;2023-03-03T13:25:33;97207.72;;;0.90;100.00
74346;BME280;62776;50.518;6.732;2023-03-03T13:29:08;97210.97;;;0.86;100.00
74346;BME280;62776;50.518;6.732;2023-03-03T13:38:34;97222.47;;;0.97;100.00
74346;BME280;62776;50.518;6.732;2023-03-03T13:41:28;97204.13;;;1.07;100.00
74346;BME280;62776;50.518;6.732;2023-03-03T13:44:30;97207.09;;;0.95;100.00
74346;BME280;62776;50.518;6.732;2023-03-03T13:47:37;97212.00;;;0.91;100.00
74346;BME280;62776;50.518;6.732;2023-03-03T14:06:08;97201.63;;;1.10;100.00
74346;BME280;62776;50.518;6.732;2023-03-03T14:09:34;97200.81;;;0.87;100.00
74346;BME280;62776;50.518;6.732;2023-03-03T14:12:41;97196.78;;;0.94;100.00
74346;BME280;62776;50.518;6.732;2023-03-03T14:15:34;97196.84;;;0.95;100.00
74346;BME280;62776;50.518;6.732;2023-03-03T14:22:05;97191.69;;;0.72;100.00
74346;BME280;62776;50.518;6.732;2023-03-03T14:25:10;97190.28;;;0.80;100.00
74346;BME280;62776;50.518;6.732;2023-03-03T14:28:14;97185.28;;;0.83;100.00
74346;BME280;62776;50.518;6.732;2023-03-03T14:31:22;97190.75;;;0.92;100.00
74346;BME280;62776;50.518;6.732;2023-03-03T14:37:27;97193.19;;;0.89;100.00
74346;BME280;62776;50.518;6.732;2023-03-03T14:40:21;97184.44;;;1.06;100.00
74346;BME280;62776;50.518;6.732;2023-03-03T14:43:36;97189.59;;;1.07;100.00
74346;BME280;62776;50.518;6.732;2023-03-03T14:46:39;97190.22;;;1.00;100.00
74346;BME280;62776;50.518;6.732;2023-03-03T14:49:33;97189.31;;;1.00;100.00
74346;BME280;62776;50.518;6.732;2023-03-03T14:52:25;97189.78;;;1.12;100.00
74346;BME280;62776;50.518;6.732;2023-03-03T14:55:32;97187.50;;;0.96;100.00
74346;BME280;62776;50.518;6.732;2023-03-03T14:58:29;97192.34;;;1.12;100.00
74346;BME280;62776;50.518;6.732;2023-03-03T15:01:34;97189.31;;;1.00;100.00
74346;BME280;62776;50.518;6.732;2023-03-03T15:04:26;97188.03;;;1.11;100.00
74346;BME280;62776;50.518;6.732;2023-03-03T15:07:32;97187.59;;;0.99;100.00
74346;BME280;62776;50.518;6.732;2023-03-03T15:16:13;97192.22;;;1.09;100.00
74346;BME280;62776;50.518;6.732;2023-03-03T15:19:49;97186.56;;;0.72;100.00
74346;BME280;62776;50.518;6.732;2023-03-03T15:29:10;97180.78;;;0.77;100.00
74346;BME280;62776;50.518;6.732;2023-03-03T15:32:16;97177.59;;;0.60;100.00
74346;BME280;62776;50.518;6.732;2023-03-03T15:38:28;97182.84;;;0.64;100.00
74346;BME280;62776;50.518;6.732;2023-03-03T15:44:31;97181.34;;;0.69;100.00
74346;BME280;62776;50.518;6.732;2023-03-03T16:00:21;97171.69;;;0.39;100.00
74346;BME280;62776;50.518;6.732;2023-03-03T16:03:26;97175.25;;;0.43;100.00
74346;BME280;62776;50.518;6.732;2023-03-03T16:13:07;97172.28;;;0.54;100.00
74346;BME280;62776;50.518;6.732;2023-03-03T16:19:24;97182.63;;;0.57;100.00
74346;BME280;62776;50.518;6.732;2023-03-03T16:22:34;97184.09;;;0.51;100.00
74346;BME280;62776;50.518;6.732;2023-03-03T16:31:42;97193.81;;;0.39;100.00
74346;BME280;62776;50.518;6.732;2023-03-03T16:37:30;97198.78;;;0.34;100.00
74346;BME280;62776;50.518;6.732;2023-03-03T16:44:04;97202.41;;;0.19;100.00
74346;BME280;62776;50.518;6.732;2023-03-03T16:47:06;97208.06;;;0.32;100.00
74346;BME280;62776;50.518;6.732;2023-03-03T17:02:11;97223.94;;;0.46;100.00
74346;BME280;62776;50.518;6.732;2023-03-03T17:08:39;97224.09;;;0.28;100.00
74346;BME280;62776;50.518;6.732;2023-03-03T17:17:46;97231.09;;;0.32;100.00
74346;BME280;62776;50.518;6.732;2023-03-03T17:20:57;97229.50;;;0.36;100.00
74346;BME280;62776;50.518;6.732;2023-03-03T17:27:06;97235.28;;;0.52;100.00
74346;BME280;62776;50.518;6.732;2023-03-03T17:36:06;97239.72;;;0.56;100.00
74346;BME280;62776;50.518;6.732;2023-03-03T17:42:14;97243.41;;;0.42;100.00
74346;BME280;62776;50.518;6.732;2023-03-03T17:45:11;97243.91;;;0.54;100.00
74346;BME280;62776;50.518;6.732;2023-03-03T18:09:55;97253.66;;;0.22;100.00
74346;BME280;62776;50.518;6.732;2023-03-03T18:25:24;97257.06;;;0.22;100.00
74346;BME280;62776;50.518;6.732;2023-03-03T18:28:22;97261.00;;;0.14;100.00
74346;BME280;62776;50.518;6.732;2023-03-03T18:32:19;97264.94;;;0.06;100.00
74346;BME280;62776;50.518;6.732;2023-03-03T18:34:44;97266.75;;;0.29;100.00
74346;BME280;62776;50.518;6.732;2023-03-03T18:37:37;97269.31;;;0.29;100.00
74346;BME280;62776;50.518;6.732;2023-03-03T18:40:33;97262.38;;;0.27;100.00
74346;BME280;62776;50.518;6.732;2023-03-03T18:49:15;97275.84;;;0.43;100.00
74346;BME280;62776;50.518;6.732;2023-03-03T18:52:29;97284.97;;;0.16;100.00
74346;BME280;62776;50.518;6.732;2023-03-03T18:58:32;97281.69;;;0.20;100.00
74346;BME280;62776;50.518;6.732;2023-03-03T19:04:17;97292.78;;;0.41;100.00
74346;BME280;62776;50.518;6.732;2023-03-03T19:19:15;97281.84;;;0.03;100.00
74346;BME280;62776;50.518;6.732;2023-03-03T19:25:15;97291.41;;;-0.13;100.00
74346;BME280;62776;50.518;6.732;2023-03-03T19:31:05;97284.78;;;-0.28;100.00
74346;BME280;62776;50.518;6.732;2023-03-03T19:34:09;97292.03;;;-0.37;100.00
74346;BME280;62776;50.518;6.732;2023-03-03T19:37:32;97292.50;;;-0.46;100.00
74346;BME280;62776;50.518;6.732;2023-03-03T19:41:02;97292.50;;;-0.65;100.00
74346;BME280;62776;50.518;6.732;2023-03-03T19:44:20;97290.69;;;-0.68;100.00
74346;BME280;62776;50.518;6.732;2023-03-03T19:50:34;97296.41;;;-0.73;100.00
74346;BME280;62776;50.518;6.732;2023-03-03T19:53:52;97293.56;;;-0.79;100.00
74346;BME280;62776;50.518;6.732;2023-03-03T19:56:53;97299.97;;;-0.70;100.00
74346;BME280;62776;50.518;6.732;2023-03-03T19:59:42;97300.72;;;-0.53;100.00
74346;BME280;62776;50.518;6.732;2023-03-03T20:05:47;97297.69;;;-0.44;100.00
74346;BME280;62776;50.518;6.732;2023-03-03T20:08:57;97302.34;;;-0.36;100.00
74346;BME280;62776;50.518;6.732;2023-03-03T20:15:05;97297.13;;;-0.18;100.00
74346;BME280;62776;50.518;6.732;2023-03-03T20:21:07;97297.78;;;-0.03;100.00
74346;BME280;62776;50.518;6.732;2023-03-03T20:28:28;97300.53;;;0.02;100.00
74346;BME280;62776;50.518;6.732;2023-03-03T20:31:12;97302.66;;;0.12;100.00
74346;BME280;62776;50.518;6.732;2023-03-03T20:34:19;97302.84;;;0.16;100.00
74346;BME280;62776;50.518;6.732;2023-03-03T20:37:17;97297.16;;;0.23;100.00
74346;BME280;62776;50.518;6.732;2023-03-03T20:40:23;97298.75;;;0.40;100.00
74346;BME280;62776;50.518;6.732;2023-03-03T20:43:31;97303.41;;;0.30;100.00
74346;BME280;62776;50.518;6.732;2023-03-03T20:56:29;97303.53;;;0.12;100.00
74346;BME280;62776;50.518;6.732;2023-03-03T20:59:53;97294.66;;;0.04;100.00
74346;BME280;62776;50.518;6.732;2023-03-03T21:08:49;97309.91;;;0.22;100.00
74346;BME280;62776;50.518;6.732;2023-03-03T21:11:42;97307.78;;;0.32;100.00
74346;BME280;62776;50.518;6.732;2023-03-03T21:14:33;97302.78;;;0.35;100.00
74346;BME280;62776;50.518;6.732;2023-03-03T21:17:28;97308.72;;;0.34;100.00
74346;BME280;62776;50.518;6.732;2023-03-03T21:23:15;97301.75;;;0.52;100.00
74346;BME280;62776;50.518;6.732;2023-03-03T21:26:10;97304.53;;;0.57;100.00
74346;BME280;62776;50.518;6.732;2023-03-03T21:29:00;97304.28;;;0.51;100.00